createdAt,value
2023-05-06T00:03:42.730Z,100.00
2023-05-06T00:08:45.218Z,100.00
2023-05-06T00:13:46.804Z,100.00
2023-05-06T00:18:48.356Z,100.00
2023-05-06T00:23:49.893Z,100.00
2023-05-06T00:28:51.452Z,100.00
2023-05-06T00:33:53.098Z,100.00
2023-05-06T00:38:54.685Z,100.00
2023-05-06T00:43:56.219Z,100.00
2023-05-06T00:48:57.899Z,100.00
2023-05-06T00:54:00.836Z,100.00
2023-05-06T00:59:02.387Z,100.00
2023-05-06T01:04:04.152Z,100.00
2023-05-06T01:09:10.692Z,100.00
2023-05-06T01:14:20.770Z,100.00
2023-05-06T01:19:37.337Z,100.00
2023-05-06T01:24:43.526Z,100.00
2023-05-06T01:29:46.736Z,100.00
2023-05-06T01:35:20.310Z,100.00
2023-05-06T01:40:26.380Z,100.00
2023-05-06T01:45:30.514Z,100.00
2023-05-06T01:50:33.289Z,100.00
2023-05-06T01:55:35.800Z,100.00
2023-05-06T02:00:38.412Z,100.00
2023-05-06T02:05:40.047Z,100.00
2023-05-06T02:10:42.383Z,100.00
2023-05-06T02:15:44.611Z,100.00
2023-05-06T02:20:50.973Z,100.00
2023-05-06T02:25:53.041Z,100.00
2023-05-06T02:30:57.803Z,100.00
2023-05-06T02:35:59.429Z,100.00
2023-05-06T02:41:01.063Z,100.00
2023-05-06T02:46:02.736Z,100.00
2023-05-06T02:51:05.379Z,100.00
2023-05-06T02:56:07.505Z,100.00
2023-05-06T03:01:09.341Z,100.00
2023-05-06T03:06:11.091Z,100.00
2023-05-06T03:11:12.935Z,100.00
2023-05-06T03:16:14.837Z,100.00
2023-05-06T03:21:20.330Z,100.00
2023-05-06T03:26:24.297Z,100.00
2023-05-06T03:31:26.772Z,100.00
2023-05-06T03:36:29.525Z,100.00
2023-05-06T03:41:31.521Z,100.00
2023-05-06T03:46:33.949Z,100.00
2023-05-06T03:51:36.130Z,100.00
2023-05-06T03:56:37.864Z,100.00
2023-05-06T04:01:39.875Z,100.00
2023-05-06T04:06:41.568Z,100.00
2023-05-06T04:11:43.454Z,100.00
2023-05-06T04:16:48.369Z,100.00
2023-05-06T04:21:49.989Z,100.00
2023-05-06T04:26:53.561Z,100.00
2023-05-06T04:31:55.386Z,100.00
2023-05-06T04:36:58.692Z,100.00
2023-05-06T04:42:23.472Z,100.00
2023-05-06T04:47:36.062Z,100.00
2023-05-06T04:52:44.277Z,100.00
2023-05-06T04:57:46.756Z,100.00
2023-05-06T05:02:48.431Z,100.00
2023-05-06T05:07:52.025Z,100.00
2023-05-06T05:12:54.060Z,100.00
2023-05-06T05:17:56.565Z,100.00
2023-05-06T05:22:58.421Z,100.00
2023-05-06T05:28:00.142Z,100.00
2023-05-06T05:33:03.987Z,100.00
2023-05-06T05:38:05.966Z,100.00
2023-05-06T05:43:07.631Z,100.00
2023-05-06T05:48:13.092Z,100.00
2023-05-06T05:53:15.197Z,100.00
2023-05-06T05:58:17.018Z,100.00
2023-05-06T06:03:19.616Z,100.00
2023-05-06T06:08:21.519Z,100.00
2023-05-06T06:13:28.782Z,100.00
2023-05-06T06:18:30.945Z,100.00
2023-05-06T06:23:32.607Z,100.00
2023-05-06T06:28:34.382Z,100.00
2023-05-06T06:33:36.130Z,100.00
2023-05-06T06:38:37.704Z,100.00
2023-05-06T06:43:39.304Z,100.00
2023-05-06T06:48:51.100Z,100.00
2023-05-06T06:53:52.755Z,100.00
2023-05-06T06:58:54.508Z,100.00
2023-05-06T07:03:56.115Z,100.00
2023-05-06T07:08:57.720Z,100.00
2023-05-06T07:13:59.390Z,100.00
2023-05-06T07:19:01.538Z,100.00
2023-05-06T07:24:03.380Z,100.00
2023-05-06T07:29:04.939Z,100.00
2023-05-06T07:34:07.758Z,100.00
2023-05-06T07:39:10.816Z,100.00
2023-05-06T07:44:12.571Z,100.00
2023-05-06T07:49:14.180Z,100.00
2023-05-06T07:54:15.833Z,100.00
2023-05-06T07:59:17.468Z,97.64
2023-05-06T08:04:19.187Z,98.11
2023-05-06T08:09:22.941Z,95.64
2023-05-06T08:14:28.197Z,96.33
2023-05-06T08:19:29.976Z,95.09
2023-05-06T08:24:31.708Z,93.70
2023-05-06T08:29:33.272Z,94.08
2023-05-06T08:34:35.041Z,89.97
2023-05-06T08:39:36.603Z,87.63
2023-05-06T08:44:38.286Z,84.78
2023-05-06T08:49:39.956Z,81.31
2023-05-06T08:54:42.659Z,79.38
2023-05-06T08:59:45.720Z,75.09
2023-05-06T09:04:48.143Z,73.12
2023-05-06T09:09:49.886Z,72.62
2023-05-06T09:14:52.178Z,71.67
2023-05-06T09:19:56.993Z,71.19
2023-05-06T09:24:58.977Z,72.30
2023-05-06T09:30:01.940Z,70.32
2023-05-06T09:35:04.024Z,71.43
2023-05-06T09:40:06.375Z,68.57
2023-05-06T09:45:08.694Z,65.86
2023-05-06T09:50:10.735Z,67.51
2023-05-06T09:55:13.125Z,67.00
2023-05-06T10:00:16.945Z,64.14
2023-05-06T10:05:18.753Z,63.99
2023-05-06T10:10:24.111Z,61.36
2023-05-06T10:15:27.181Z,60.93
2023-05-06T10:20:31.390Z,62.22
2023-05-06T10:25:38.615Z,61.77
2023-05-06T10:30:41.201Z,61.36
2023-05-06T10:35:57.307Z,60.75
2023-05-06T10:40:59.783Z,61.64
2023-05-06T10:46:02.576Z,61.02
2023-05-06T10:51:19.955Z,59.88
2023-05-06T10:56:21.728Z,61.08
2023-05-06T11:01:27.351Z,60.78
2023-05-06T11:06:37.236Z,59.92
2023-05-06T11:12:03.300Z,58.44
2023-05-06T11:17:09.864Z,58.43
2023-05-06T11:22:41.039Z,58.23
2023-05-06T11:27:42.657Z,57.67
2023-05-06T11:32:46.761Z,57.71
2023-05-06T11:37:48.425Z,57.58
2023-05-06T11:42:50.112Z,56.70
2023-05-06T11:47:54.916Z,56.97
2023-05-06T11:52:56.581Z,55.99
2023-05-06T11:57:58.112Z,57.04
2023-05-06T12:02:59.749Z,56.30
2023-05-06T12:08:01.570Z,56.82
2023-05-06T12:13:09.417Z,56.08
2023-05-06T12:18:12.641Z,55.76
2023-05-06T12:23:15.795Z,54.25
2023-05-06T12:28:19.224Z,54.73
2023-05-06T12:33:21.407Z,55.74
2023-05-06T12:38:22.970Z,54.17
2023-05-06T12:43:31.334Z,55.89
2023-05-06T12:48:33.147Z,55.91
2023-05-06T12:53:35.588Z,55.50
2023-05-06T12:58:38.094Z,54.04
2023-05-06T13:03:41.001Z,56.12
2023-05-06T13:08:42.756Z,54.96
2023-05-06T13:13:44.365Z,55.18
2023-05-06T13:18:45.928Z,53.77
2023-05-06T13:23:47.942Z,54.22
2023-05-06T13:28:49.597Z,54.34
2023-05-06T13:33:51.298Z,54.55
2023-05-06T13:38:52.916Z,52.85
2023-05-06T13:43:54.487Z,53.13
2023-05-06T13:48:56.034Z,53.37
2023-05-06T13:53:57.608Z,52.13
2023-05-06T13:58:59.447Z,52.41
2023-05-06T14:04:01.016Z,52.28
2023-05-06T14:09:02.634Z,51.71
2023-05-06T14:14:05.288Z,51.63
2023-05-06T14:19:07.059Z,52.18
2023-05-06T14:24:10.144Z,51.24
2023-05-06T14:29:11.904Z,51.36
2023-05-06T14:34:13.519Z,52.63
2023-05-06T14:39:15.630Z,51.17
2023-05-06T14:44:17.135Z,51.31
2023-05-06T14:49:18.913Z,50.36
2023-05-06T14:54:20.619Z,50.82
2023-05-06T14:59:22.673Z,51.61
2023-05-06T15:04:24.363Z,50.67
2023-05-06T15:09:26.298Z,51.15
2023-05-06T15:14:27.842Z,50.81
2023-05-06T15:19:29.529Z,49.95
2023-05-06T15:24:31.230Z,48.73
2023-05-06T15:29:32.864Z,49.43
2023-05-06T15:34:34.558Z,49.63
2023-05-06T15:39:37.896Z,50.79
2023-05-06T15:44:39.544Z,49.52
2023-05-06T15:54:49.667Z,51.01
2023-05-06T15:59:51.896Z,50.34
2023-05-06T16:04:54.018Z,49.89
2023-05-06T16:09:55.741Z,49.50
2023-05-06T16:14:57.686Z,50.41
2023-05-06T16:19:59.383Z,50.94
2023-05-06T16:25:00.947Z,50.23
2023-05-06T16:30:02.512Z,50.30
2023-05-06T16:35:04.252Z,50.68
2023-05-06T16:40:08.223Z,50.28
2023-05-06T16:45:10.496Z,51.65
2023-05-06T16:50:12.670Z,51.91
2023-05-06T16:55:14.513Z,51.62
2023-05-06T17:00:16.709Z,52.17
2023-05-06T17:05:20.678Z,51.10
2023-05-06T17:10:24.746Z,51.48
2023-05-06T17:15:26.546Z,51.84
2023-05-06T17:20:28.152Z,51.18
2023-05-06T17:25:29.681Z,52.57
2023-05-06T17:30:31.232Z,52.83
2023-05-06T17:35:32.796Z,53.55
2023-05-06T17:40:34.507Z,53.46
2023-05-06T17:45:36.185Z,53.15
2023-05-06T17:50:37.718Z,53.99
2023-05-06T17:55:39.939Z,54.30
2023-05-06T18:00:41.637Z,55.24
2023-05-06T18:05:43.196Z,56.02
2023-05-06T18:10:44.727Z,56.43
2023-05-06T18:15:46.320Z,56.95
2023-05-06T18:20:47.844Z,57.76
2023-05-06T18:25:51.601Z,58.60
2023-05-06T18:30:53.134Z,59.65
2023-05-06T18:35:54.693Z,61.06
2023-05-06T18:40:56.418Z,61.94
2023-05-06T18:45:58.112Z,62.89
2023-05-06T18:51:09.584Z,64.31
2023-05-06T18:56:11.384Z,65.19
2023-05-06T19:01:12.978Z,66.62
2023-05-06T19:06:14.694Z,68.52
2023-05-06T19:11:18.143Z,68.98
2023-05-06T19:16:19.748Z,71.06
2023-05-06T19:21:21.855Z,71.63
2023-05-06T19:26:23.499Z,72.67
2023-05-06T19:31:25.016Z,73.37
2023-05-06T19:36:26.794Z,74.56
2023-05-06T19:41:28.384Z,76.17
2023-05-06T19:46:29.955Z,75.57
2023-05-06T19:51:31.614Z,76.25
2023-05-06T19:56:33.175Z,76.84
2023-05-06T20:01:34.849Z,77.34
2023-05-06T20:06:36.423Z,78.20
2023-05-06T20:11:38.025Z,77.95
2023-05-06T20:16:40.853Z,78.24
2023-05-06T20:21:42.439Z,79.08
2023-05-06T20:26:43.956Z,78.58
2023-05-06T20:31:46.952Z,79.79
2023-05-06T20:36:49.842Z,81.08
2023-05-06T20:41:51.469Z,81.72
2023-05-06T20:46:52.972Z,82.07
2023-05-06T20:51:54.638Z,82.52
2023-05-06T20:56:57.849Z,82.83
2023-05-06T21:01:59.538Z,83.02
2023-05-06T21:07:01.147Z,83.81
2023-05-06T21:12:02.723Z,84.92
2023-05-06T21:17:04.230Z,85.06
2023-05-06T21:22:09.906Z,84.97
2023-05-06T21:27:11.489Z,84.30
2023-05-06T21:32:13.110Z,84.95
2023-05-06T21:37:14.639Z,84.80
2023-05-06T21:42:16.196Z,84.19
2023-05-06T21:47:17.740Z,83.56
2023-05-06T21:52:19.250Z,83.92
2023-05-06T21:57:20.744Z,84.26
2023-05-06T22:02:22.328Z,83.75
2023-05-06T22:07:23.892Z,84.04
2023-05-06T22:12:25.504Z,84.08
2023-05-06T22:17:27.313Z,84.32
2023-05-06T22:22:29.022Z,84.82
2023-05-06T22:27:30.945Z,85.72
2023-05-06T22:32:32.573Z,85.43
2023-05-06T22:37:34.152Z,85.90
2023-05-06T22:42:35.763Z,86.07
2023-05-06T22:47:37.364Z,85.70
2023-05-06T22:52:38.951Z,84.66
2023-05-06T22:57:40.579Z,84.98
2023-05-06T23:02:42.227Z,85.39
2023-05-06T23:07:43.807Z,85.84
2023-05-06T23:12:45.426Z,86.08
2023-05-06T23:17:47.008Z,86.15
2023-05-06T23:22:48.617Z,86.10
2023-05-06T23:27:50.188Z,86.66
2023-05-06T23:32:51.819Z,86.41
2023-05-06T23:37:53.414Z,88.15
2023-05-06T23:42:54.964Z,87.88
2023-05-06T23:47:57.044Z,88.65
2023-05-06T23:52:58.666Z,88.99
2023-05-06T23:58:00.328Z,89.93
